sensor_id;sensor_type;location;lat;lon;timestamp;pressure;altitude;pressure_sealevel;temperature;humidity
7834;BME280;3962;42.696;23.354;2023-11-19T07:11:14;95291.91;;;3.63;74.16
7834;BME280;3962;42.696;23.354;2023-11-19T07:13:42;95289.13;;;3.65;74.38
7834;BME280;3962;42.696;23.354;2023-11-19T07:16:09;95287.47;;;3.64;73.83
7834;BME280;3962;42.696;23.354;2023-11-19T07:18:36;95289.88;;;3.79;74.35
7834;BME280;3962;42.696;23.354;2023-11-19T07:21:04;95290.72;;;3.67;74.17
7834;BME280;3962;42.696;23.354;2023-11-19T07:23:31;95294.22;;;3.55;75.07
7834;BME280;3962;42.696;23.354;2023-11-19T07:25:58;95305.38;;;3.59;74.66
7834;BME280;3962;42.696;23.354;2023-11-19T07:28:26;95294.63;;;3.49;73.98
7834;BME280;3962;42.696;23.354;2023-11-19T07:30:54;95303.56;;;3.59;74.68
7834;BME280;3962;42.696;23.354;2023-11-19T07:33:22;95326.41;;;3.47;74.90
7834;BME280;3962;42.696;23.354;2023-11-19T07:35:49;95328.41;;;3.55;74.63
7834;BME280;3962;42.696;23.354;2023-11-19T07:38:16;95341.25;;;3.60;74.32
7834;BME280;3962;42.696;23.354;2023-11-19T07:40:43;95321.97;;;3.59;74.03
7834;BME280;3962;42.696;23.354;2023-11-19T07:43:10;95304.94;;;3.65;74.13
7834;BME280;3962;42.696;23.354;2023-11-19T07:45:38;95324.41;;;3.62;73.98
7834;BME280;3962;42.696;23.354;2023-11-19T07:48:05;95326.81;;;3.65;73.85
7834;BME280;3962;42.696;23.354;2023-11-19T07:50:32;95311.13;;;3.64;73.90
7834;BME280;3962;42.696;23.354;2023-11-19T07:52:58;95329.97;;;3.95;73.42
7834;BME280;3962;42.696;23.354;2023-11-19T07:55:26;95351.81;;;5.40;69.29
7834;BME280;3962;42.696;23.354;2023-11-19T07:57:54;95334.41;;;5.37;67.61
7834;BME280;3962;42.696;23.354;2023-11-19T08:00:21;95335.97;;;5.05;67.89
7834;BME280;3962;42.696;23.354;2023-11-19T08:02:49;95328.53;;;4.63;69.65
7834;BME280;3962;42.696;23.354;2023-11-19T08:05:16;95347.16;;;4.49;69.90
7834;BME280;3962;42.696;23.354;2023-11-19T08:07:43;95351.00;;;5.16;70.02
7834;BME280;3962;42.696;23.354;2023-11-19T08:10:09;95356.31;;;5.27;66.95
7834;BME280;3962;42.696;23.354;2023-11-19T08:12:36;95339.28;;;4.96;67.90
7834;BME280;3962;42.696;23.354;2023-11-19T08:15:04;95346.63;;;4.44;69.77
7834;BME280;3962;42.696;23.354;2023-11-19T08:17:31;95357.56;;;4.02;71.15
7834;BME280;3962;42.696;23.354;2023-11-19T08:19:59;95359.44;;;4.00;71.43
7834;BME280;3962;42.696;23.354;2023-11-19T08:22:26;95358.81;;;3.84;72.03
7834;BME280;3962;42.696;23.354;2023-11-19T08:24:53;95364.09;;;4.09;71.34
7834;BME280;3962;42.696;23.354;2023-11-19T08:27:20;95355.03;;;4.01;71.50
7834;BME280;3962;42.696;23.354;2023-11-19T08:29:53;95349.78;;;3.76;72.61
7834;BME280;3962;42.696;23.354;2023-11-19T08:32:21;95345.47;;;3.62;72.96
7834;BME280;3962;42.696;23.354;2023-11-19T08:34:47;95351.66;;;3.61;73.32
7834;BME280;3962;42.696;23.354;2023-11-19T08:37:16;95347.88;;;3.65;72.67
7834;BME280;3962;42.696;23.354;2023-11-19T08:39:43;95368.50;;;3.59;73.51
7834;BME280;3962;42.696;23.354;2023-11-19T08:42:10;95386.41;;;3.79;73.30
7834;BME280;3962;42.696;23.354;2023-11-19T08:44:37;95385.25;;;3.83;72.79
7834;BME280;3962;42.696;23.354;2023-11-19T08:47:04;95375.88;;;3.66;72.91
7834;BME280;3962;42.696;23.354;2023-11-19T08:49:31;95378.59;;;3.77;73.22
7834;BME280;3962;42.696;23.354;2023-11-19T08:51:58;95363.13;;;3.73;72.48
7834;BME280;3962;42.696;23.354;2023-11-19T08:54:26;95372.41;;;3.78;72.62
7834;BME280;3962;42.696;23.354;2023-11-19T08:56:53;95394.09;;;3.94;72.35
7834;BME280;3962;42.696;23.354;2023-11-19T08:59:20;95366.06;;;3.81;71.60
7834;BME280;3962;42.696;23.354;2023-11-19T09:01:47;95378.00;;;3.86;71.96
7834;BME280;3962;42.696;23.354;2023-11-19T09:04:13;95368.28;;;3.99;71.43
7834;BME280;3962;42.696;23.354;2023-11-19T09:06:41;95367.63;;;4.33;71.24
7834;BME280;3962;42.696;23.354;2023-11-19T09:09:09;95351.31;;;4.28;70.57
7834;BME280;3962;42.696;23.354;2023-11-19T09:11:37;95353.94;;;4.28;70.06
7834;BME280;3962;42.696;23.354;2023-11-19T09:14:04;95356.34;;;4.31;70.08
7834;BME280;3962;42.696;23.354;2023-11-19T09:16:31;95331.25;;;4.38;69.94
7834;BME280;3962;42.696;23.354;2023-11-19T09:18:58;95352.25;;;4.27;70.07
7834;BME280;3962;42.696;23.354;2023-11-19T09:21:25;95359.88;;;4.55;69.27
7834;BME280;3962;42.696;23.354;2023-11-19T09:23:51;95367.91;;;4.54;69.03
7834;BME280;3962;42.696;23.354;2023-11-19T09:26:19;95375.84;;;4.41;69.34
7834;BME280;3962;42.696;23.354;2023-11-19T09:28:47;95374.84;;;4.55;69.45
7834;BME280;3962;42.696;23.354;2023-11-19T09:31:14;95375.19;;;4.50;69.52
7834;BME280;3962;42.696;23.354;2023-11-19T09:33:41;95360.44;;;4.48;69.04
7834;BME280;3962;42.696;23.354;2023-11-19T09:36:08;95359.72;;;4.33;69.93
7834;BME280;3962;42.696;23.354;2023-11-19T09:38:36;95344.78;;;4.21;69.27
7834;BME280;3962;42.696;23.354;2023-11-19T09:41:04;95332.69;;;4.06;70.43
7834;BME280;3962;42.696;23.354;2023-11-19T09:43:34;95341.94;;;4.12;70.33
7834;BME280;3962;42.696;23.354;2023-11-19T09:46:05;95320.84;;;4.24;70.05
7834;BME280;3962;42.696;23.354;2023-11-19T09:48:33;95321.91;;;4.34;69.49
7834;BME280;3962;42.696;23.354;2023-11-19T09:51:03;95309.19;;;4.16;69.46
7834;BME280;3962;42.696;23.354;2023-11-19T09:53:30;95294.25;;;4.04;69.22
7834;BME280;3962;42.696;23.354;2023-11-19T09:56:00;95292.22;;;4.20;69.24
7834;BME280;3962;42.696;23.354;2023-11-19T09:58:30;95314.09;;;4.33;69.22
7834;BME280;3962;42.696;23.354;2023-11-19T10:00:57;95304.41;;;4.33;68.80
7834;BME280;3962;42.696;23.354;2023-11-19T10:03:26;95304.00;;;4.27;69.31
7834;BME280;3962;42.696;23.354;2023-11-19T10:05:54;95309.97;;;4.41;69.20
7834;BME280;3962;42.696;23.354;2023-11-19T10:08:21;95290.94;;;4.61;68.05
7834;BME280;3962;42.696;23.354;2023-11-19T10:10:48;95291.53;;;4.65;68.14
7834;BME280;3962;42.696;23.354;2023-11-19T10:13:15;95293.03;;;4.33;68.63
7834;BME280;3962;42.696;23.354;2023-11-19T10:15:43;95298.06;;;4.36;69.12
7834;BME280;3962;42.696;23.354;2023-11-19T10:18:10;95301.31;;;4.39;69.30
7834;BME280;3962;42.696;23.354;2023-11-19T10:20:41;95317.50;;;4.58;68.62
7834;BME280;3962;42.696;23.354;2023-11-19T10:23:08;95316.50;;;4.48;68.17
7834;BME280;3962;42.696;23.354;2023-11-19T10:25:36;95312.72;;;4.40;69.13
7834;BME280;3962;42.696;23.354;2023-11-19T10:28:03;95313.41;;;4.54;69.22
7834;BME280;3962;42.696;23.354;2023-11-19T10:30:30;95306.72;;;4.61;68.95
7834;BME280;3962;42.696;23.354;2023-11-19T10:33:03;95298.00;;;4.61;68.76
7834;BME280;3962;42.696;23.354;2023-11-19T10:35:31;95281.72;;;4.43;68.91
7834;BME280;3962;42.696;23.354;2023-11-19T10:38:13;95286.16;;;4.43;69.28
7834;BME280;3962;42.696;23.354;2023-11-19T10:40:41;95282.72;;;4.53;69.07
7834;BME280;3962;42.696;23.354;2023-11-19T10:43:08;95289.72;;;4.42;68.29
7834;BME280;3962;42.696;23.354;2023-11-19T10:45:36;95296.81;;;4.65;68.79
7834;BME280;3962;42.696;23.354;2023-11-19T10:48:03;95300.91;;;4.69;67.85
7834;BME280;3962;42.696;23.354;2023-11-19T10:50:33;95284.66;;;4.51;68.22
7834;BME280;3962;42.696;23.354;2023-11-19T10:53:00;95295.81;;;4.55;68.23
7834;BME280;3962;42.696;23.354;2023-11-19T10:55:30;95289.84;;;4.40;68.80
7834;BME280;3962;42.696;23.354;2023-11-19T10:57:59;95275.41;;;4.46;68.95
7834;BME280;3962;42.696;23.354;2023-11-19T11:00:29;95283.25;;;4.58;68.76
7834;BME280;3962;42.696;23.354;2023-11-19T11:03:00;95283.63;;;4.41;67.56
7834;BME280;3962;42.696;23.354;2023-11-19T11:05:29;95281.25;;;4.62;68.39
7834;BME280;3962;42.696;23.354;2023-11-19T11:08:00;95278.38;;;4.65;67.95
7834;BME280;3962;42.696;23.354;2023-11-19T11:10:32;95268.50;;;4.56;67.98
7834;BME280;3962;42.696;23.354;2023-11-19T11:13:03;95269.63;;;4.64;67.70
7834;BME280;3962;42.696;23.354;2023-11-19T11:15:32;95271.31;;;4.65;67.76
7834;BME280;3962;42.696;23.354;2023-11-19T11:18:00;95262.59;;;4.76;68.10
7834;BME280;3962;42.696;23.354;2023-11-19T11:20:29;95254.09;;;4.72;67.76
7834;BME280;3962;42.696;23.354;2023-11-19T11:23:16;95262.00;;;4.72;68.91
7834;BME280;3962;42.696;23.354;2023-11-19T11:25:54;95267.63;;;5.02;68.28
7834;BME280;3962;42.696;23.354;2023-11-19T11:28:32;95264.91;;;5.15;67.38
7834;BME280;3962;42.696;23.354;2023-11-19T11:31:23;95268.66;;;5.23;67.14
7834;BME280;3962;42.696;23.354;2023-11-19T11:34:05;95252.88;;;5.45;66.28
7834;BME280;3962;42.696;23.354;2023-11-19T11:36:41;95254.94;;;5.64;65.21
7834;BME280;3962;42.696;23.354;2023-11-19T11:39:13;95249.84;;;5.28;66.45
7834;BME280;3962;42.696;23.354;2023-11-19T11:41:42;95245.25;;;5.19;66.97
7834;BME280;3962;42.696;23.354;2023-11-19T11:44:10;95238.78;;;5.12;67.17
7834;BME280;3962;42.696;23.354;2023-11-19T11:46:55;95227.31;;;5.24;65.69
7834;BME280;3962;42.696;23.354;2023-11-19T11:49:26;95229.22;;;5.33;66.84
7834;BME280;3962;42.696;23.354;2023-11-19T11:52:02;95234.25;;;5.25;66.66
7834;BME280;3962;42.696;23.354;2023-11-19T11:54:29;95237.47;;;5.17;66.75
7834;BME280;3962;42.696;23.354;2023-11-19T11:57:07;95227.84;;;5.05;66.63
7834;BME280;3962;42.696;23.354;2023-11-19T11:59:43;95221.50;;;5.08;66.94
7834;BME280;3962;42.696;23.354;2023-11-19T12:02:13;95241.56;;;5.21;66.48
7834;BME280;3962;42.696;23.354;2023-11-19T12:04:40;95231.63;;;5.25;66.84
7834;BME280;3962;42.696;23.354;2023-11-19T12:07:12;95231.25;;;5.29;65.68
7834;BME280;3962;42.696;23.354;2023-11-19T12:09:40;95222.19;;;5.44;65.34
7834;BME280;3962;42.696;23.354;2023-11-19T12:12:19;95221.44;;;5.42;64.51
7834;BME280;3962;42.696;23.354;2023-11-19T12:15:03;95212.91;;;5.28;65.12
7834;BME280;3962;42.696;23.354;2023-11-19T12:17:44;95210.03;;;5.20;65.36
7834;BME280;3962;42.696;23.354;2023-11-19T12:20:15;95206.34;;;5.44;65.15
7834;BME280;3962;42.696;23.354;2023-11-19T12:22:43;95200.47;;;5.63;64.98
7834;BME280;3962;42.696;23.354;2023-11-19T12:25:10;95199.88;;;5.70;65.00
7834;BME280;3962;42.696;23.354;2023-11-19T12:27:41;95195.78;;;5.66;65.07
7834;BME280;3962;42.696;23.354;2023-11-19T12:30:08;95199.91;;;5.92;64.17
7834;BME280;3962;42.696;23.354;2023-11-19T12:32:39;95187.03;;;6.10;64.02
7834;BME280;3962;42.696;23.354;2023-11-19T12:35:07;95185.69;;;6.15;62.81
7834;BME280;3962;42.696;23.354;2023-11-19T12:37:41;95174.13;;;6.27;62.98
7834;BME280;3962;42.696;23.354;2023-11-19T12:40:14;95185.47;;;5.96;63.58
7834;BME280;3962;42.696;23.354;2023-11-19T12:42:44;95178.41;;;5.97;63.75
7834;BME280;3962;42.696;23.354;2023-11-19T12:45:11;95172.75;;;6.01;64.23
7834;BME280;3962;42.696;23.354;2023-11-19T12:47:39;95170.28;;;6.31;63.30
7834;BME280;3962;42.696;23.354;2023-11-19T12:50:07;95165.50;;;6.25;63.50
7834;BME280;3962;42.696;23.354;2023-11-19T12:52:34;95163.44;;;6.29;62.24
7834;BME280;3962;42.696;23.354;2023-11-19T12:55:01;95169.00;;;6.26;63.74
7834;BME280;3962;42.696;23.354;2023-11-19T12:57:38;95174.53;;;6.12;64.36
7834;BME280;3962;42.696;23.354;2023-11-19T13:00:18;95166.72;;;6.10;64.10
7834;BME280;3962;42.696;23.354;2023-11-19T13:02:46;95162.66;;;6.06;63.09
7834;BME280;3962;42.696;23.354;2023-11-19T13:05:24;95153.03;;;6.16;62.98
7834;BME280;3962;42.696;23.354;2023-11-19T13:07:58;95155.78;;;6.26;64.16
7834;BME280;3962;42.696;23.354;2023-11-19T13:10:26;95151.31;;;6.26;62.67
7834;BME280;3962;42.696;23.354;2023-11-19T13:13:01;95164.19;;;6.20;62.82
7834;BME280;3962;42.696;23.354;2023-11-19T13:15:29;95157.63;;;6.46;62.24
7834;BME280;3962;42.696;23.354;2023-11-19T13:17:56;95170.44;;;6.61;62.87
7834;BME280;3962;42.696;23.354;2023-11-19T13:20:23;95163.44;;;6.60;62.31
7834;BME280;3962;42.696;23.354;2023-11-19T13:22:57;95145.66;;;6.62;63.57
7834;BME280;3962;42.696;23.354;2023-11-19T13:25:24;95146.56;;;6.52;63.08
7834;BME280;3962;42.696;23.354;2023-11-19T13:27:51;95139.66;;;6.60;63.30
7834;BME280;3962;42.696;23.354;2023-11-19T13:30:18;95141.09;;;6.64;62.98
7834;BME280;3962;42.696;23.354;2023-11-19T13:32:46;95144.94;;;6.60;62.17
7834;BME280;3962;42.696;23.354;2023-11-19T13:35:13;95144.94;;;6.29;63.42
7834;BME280;3962;42.696;23.354;2023-11-19T13:37:40;95144.84;;;6.19;63.73
7834;BME280;3962;42.696;23.354;2023-11-19T13:40:07;95144.34;;;6.25;64.40
7834;BME280;3962;42.696;23.354;2023-11-19T13:42:36;95139.72;;;6.07;63.98
7834;BME280;3962;42.696;23.354;2023-11-19T13:45:07;95144.91;;;5.97;64.96
7834;BME280;3962;42.696;23.354;2023-11-19T13:47:36;95161.13;;;6.04;65.40
7834;BME280;3962;42.696;23.354;2023-11-19T13:50:05;95161.34;;;6.12;64.47
7834;BME280;3962;42.696;23.354;2023-11-19T13:52:32;95160.25;;;6.03;65.19
7834;BME280;3962;42.696;23.354;2023-11-19T13:54:59;95158.94;;;5.98;64.73
7834;BME280;3962;42.696;23.354;2023-11-19T13:57:26;95150.50;;;6.15;64.79
7834;BME280;3962;42.696;23.354;2023-11-19T13:59:56;95155.19;;;6.22;64.88
7834;BME280;3962;42.696;23.354;2023-11-19T14:02:23;95153.41;;;6.12;64.79
7834;BME280;3962;42.696;23.354;2023-11-19T14:04:50;95149.59;;;6.05;65.31
7834;BME280;3962;42.696;23.354;2023-11-19T14:07:18;95169.03;;;6.04;66.01
7834;BME280;3962;42.696;23.354;2023-11-19T14:09:45;95169.25;;;6.12;65.52
7834;BME280;3962;42.696;23.354;2023-11-19T14:12:12;95173.22;;;5.95;65.69
7834;BME280;3962;42.696;23.354;2023-11-19T14:14:39;95181.63;;;5.89;66.44
7834;BME280;3962;42.696;23.354;2023-11-19T14:17:10;95172.53;;;5.93;66.63
7834;BME280;3962;42.696;23.354;2023-11-19T14:19:41;95190.06;;;5.83;66.03
7834;BME280;3962;42.696;23.354;2023-11-19T14:22:09;95206.03;;;5.82;65.87
7834;BME280;3962;42.696;23.354;2023-11-19T14:24:37;95203.50;;;5.80;66.47
7834;BME280;3962;42.696;23.354;2023-11-19T14:27:07;95196.97;;;5.73;66.32
7834;BME280;3962;42.696;23.354;2023-11-19T14:29:34;95197.94;;;5.72;67.05
7834;BME280;3962;42.696;23.354;2023-11-19T14:32:01;95183.56;;;5.76;66.84
7834;BME280;3962;42.696;23.354;2023-11-19T14:34:29;95192.78;;;5.60;66.83
7834;BME280;3962;42.696;23.354;2023-11-19T14:36:56;95173.47;;;5.48;67.54
7834;BME280;3962;42.696;23.354;2023-11-19T14:39:23;95173.34;;;5.39;67.62
7834;BME280;3962;42.696;23.354;2023-11-19T14:41:52;95176.94;;;5.27;68.57
7834;BME280;3962;42.696;23.354;2023-11-19T14:44:23;95167.94;;;5.18;68.42
7834;BME280;3962;42.696;23.354;2023-11-19T14:46:50;95161.47;;;5.11;68.87
7834;BME280;3962;42.696;23.354;2023-11-19T14:49:16;95167.81;;;5.09;69.03
7834;BME280;3962;42.696;23.354;2023-11-19T14:51:43;95172.69;;;5.02;70.23
7834;BME280;3962;42.696;23.354;2023-11-19T14:54:10;95179.19;;;4.98;69.86
7834;BME280;3962;42.696;23.354;2023-11-19T14:56:40;95174.13;;;4.95;70.61
7834;BME280;3962;42.696;23.354;2023-11-19T14:59:09;95172.44;;;4.94;70.65
7834;BME280;3962;42.696;23.354;2023-11-19T15:01:36;95168.13;;;4.93;70.37
7834;BME280;3962;42.696;23.354;2023-11-19T15:04:03;95168.97;;;4.94;70.24
7834;BME280;3962;42.696;23.354;2023-11-19T15:06:29;95177.50;;;4.97;70.51
7834;BME280;3962;42.696;23.354;2023-11-19T15:08:57;95188.03;;;4.97;70.63
7834;BME280;3962;42.696;23.354;2023-11-19T15:11:24;95195.72;;;5.00;70.40
7834;BME280;3962;42.696;23.354;2023-11-19T15:13:51;95198.59;;;4.97;70.38
7834;BME280;3962;42.696;23.354;2023-11-19T15:16:20;95203.00;;;4.97;70.13
7834;BME280;3962;42.696;23.354;2023-11-19T15:19:04;95195.72;;;5.00;70.57
7834;BME280;3962;42.696;23.354;2023-11-19T15:21:31;95204.94;;;4.95;70.53
7834;BME280;3962;42.696;23.354;2023-11-19T15:23:58;95207.56;;;4.84;70.03
7834;BME280;3962;42.696;23.354;2023-11-19T15:26:25;95212.91;;;4.82;70.63
7834;BME280;3962;42.696;23.354;2023-11-19T15:28:52;95210.28;;;4.82;71.37
7834;BME280;3962;42.696;23.354;2023-11-19T15:31:23;95198.06;;;4.81;70.62
7834;BME280;3962;42.696;23.354;2023-11-19T15:33:50;95200.19;;;4.76;71.39
7834;BME280;3962;42.696;23.354;2023-11-19T15:36:17;95198.53;;;4.75;71.34
7834;BME280;3962;42.696;23.354;2023-11-19T15:38:45;95192.41;;;4.75;71.39
7834;BME280;3962;42.696;23.354;2023-11-19T15:41:12;95179.47;;;4.72;71.43
7834;BME280;3962;42.696;23.354;2023-11-19T15:43:39;95185.88;;;4.57;71.43
7834;BME280;3962;42.696;23.354;2023-11-19T15:46:06;95190.41;;;4.55;71.63
7834;BME280;3962;42.696;23.354;2023-11-19T15:48:35;95196.75;;;4.52;72.18
7834;BME280;3962;42.696;23.354;2023-11-19T15:51:03;95199.63;;;4.49;72.21
7834;BME280;3962;42.696;23.354;2023-11-19T15:53:30;95197.09;;;4.48;72.27
7834;BME280;3962;42.696;23.354;2023-11-19T15:55:57;95198.25;;;4.44;72.82
7834;BME280;3962;42.696;23.354;2023-11-19T15:58:24;95198.50;;;4.41;72.76
7834;BME280;3962;42.696;23.354;2023-11-19T16:00:51;95191.66;;;4.38;72.87
7834;BME280;3962;42.696;23.354;2023-11-19T16:03:18;95198.88;;;4.47;72.25
7834;BME280;3962;42.696;23.354;2023-11-19T16:05:47;95212.84;;;4.60;71.82
7834;BME280;3962;42.696;23.354;2023-11-19T16:08:14;95203.53;;;4.67;71.60
7834;BME280;3962;42.696;23.354;2023-11-19T16:10:41;95203.59;;;4.55;72.08
7834;BME280;3962;42.696;23.354;2023-11-19T16:13:09;95210.53;;;4.56;72.72
7834;BME280;3962;42.696;23.354;2023-11-19T16:15:37;95218.81;;;4.62;72.80
7834;BME280;3962;42.696;23.354;2023-11-19T16:18:04;95210.03;;;4.74;72.57
7834;BME280;3962;42.696;23.354;2023-11-19T16:20:32;95210.28;;;4.82;71.89
7834;BME280;3962;42.696;23.354;2023-11-19T16:23:01;95207.56;;;4.84;71.76
7834;BME280;3962;42.696;23.354;2023-11-19T16:25:29;95200.47;;;4.84;72.09
7834;BME280;3962;42.696;23.354;2023-11-19T16:27:57;95193.44;;;4.96;72.42
7834;BME280;3962;42.696;23.354;2023-11-19T16:30:24;95184.59;;;5.08;71.49
7834;BME280;3962;42.696;23.354;2023-11-19T16:32:57;95172.84;;;5.12;71.44
7834;BME280;3962;42.696;23.354;2023-11-19T16:35:24;95168.47;;;4.89;70.90
7834;BME280;3962;42.696;23.354;2023-11-19T16:37:51;95166.19;;;4.84;70.89
7834;BME280;3962;42.696;23.354;2023-11-19T16:40:20;95173.28;;;4.84;71.06
7834;BME280;3962;42.696;23.354;2023-11-19T16:42:47;95190.91;;;4.94;71.10
7834;BME280;3962;42.696;23.354;2023-11-19T16:45:14;95187.19;;;4.97;70.47
7834;BME280;3962;42.696;23.354;2023-11-19T16:47:41;95195.22;;;4.95;70.95
7834;BME280;3962;42.696;23.354;2023-11-19T16:50:10;95193.66;;;4.93;70.19
7834;BME280;3962;42.696;23.354;2023-11-19T16:52:38;95205.50;;;4.87;69.88
7834;BME280;3962;42.696;23.354;2023-11-19T16:55:05;95200.72;;;4.92;70.16
7834;BME280;3962;42.696;23.354;2023-11-19T16:57:39;95206.00;;;4.92;70.26
7834;BME280;3962;42.696;23.354;2023-11-19T17:00:07;95221.09;;;4.90;70.33
7834;BME280;3962;42.696;23.354;2023-11-19T17:02:37;95217.59;;;4.90;69.74
7834;BME280;3962;42.696;23.354;2023-11-19T17:05:04;95217.59;;;4.90;70.17
7834;BME280;3962;42.696;23.354;2023-11-19T17:07:33;95222.59;;;5.05;70.05
7834;BME280;3962;42.696;23.354;2023-11-19T17:10:00;95222.00;;;5.13;69.17
7834;BME280;3962;42.696;23.354;2023-11-19T17:12:28;95222.03;;;5.24;69.65
7834;BME280;3962;42.696;23.354;2023-11-19T17:14:56;95210.03;;;5.20;69.06
7834;BME280;3962;42.696;23.354;2023-11-19T17:17:32;95219.59;;;5.10;69.37
7834;BME280;3962;42.696;23.354;2023-11-19T17:20:02;95205.03;;;4.93;69.88
7834;BME280;3962;42.696;23.354;2023-11-19T17:22:32;95207.22;;;4.99;69.42
7834;BME280;3962;42.696;23.354;2023-11-19T17:25:03;95197.03;;;5.06;69.11
7834;BME280;3962;42.696;23.354;2023-11-19T17:27:31;95195.25;;;5.06;68.87
7834;BME280;3962;42.696;23.354;2023-11-19T17:30:02;95197.66;;;5.09;69.28
7834;BME280;3962;42.696;23.354;2023-11-19T17:32:31;95196.31;;;5.04;68.61
7834;BME280;3962;42.696;23.354;2023-11-19T17:34:58;95201.09;;;4.99;68.98
7834;BME280;3962;42.696;23.354;2023-11-19T17:37:25;95197.03;;;4.95;68.71
7834;BME280;3962;42.696;23.354;2023-11-19T17:39:52;95195.34;;;5.05;68.21
7834;BME280;3962;42.696;23.354;2023-11-19T17:42:19;95199.22;;;5.12;67.75
7834;BME280;3962;42.696;23.354;2023-11-19T17:44:48;95204.13;;;5.16;67.19
7834;BME280;3962;42.696;23.354;2023-11-19T17:47:16;95188.44;;;5.26;67.44
7834;BME280;3962;42.696;23.354;2023-11-19T17:49:43;95193.03;;;5.35;67.18
7834;BME280;3962;42.696;23.354;2023-11-19T17:52:10;95189.31;;;5.37;67.15
7834;BME280;3962;42.696;23.354;2023-11-19T17:54:37;95182.00;;;5.41;66.60
7834;BME280;3962;42.696;23.354;2023-11-19T17:57:04;95188.94;;;5.42;65.68
7834;BME280;3962;42.696;23.354;2023-11-19T17:59:31;95182.00;;;5.41;65.06
7834;BME280;3962;42.696;23.354;2023-11-19T18:01:58;95185.72;;;5.38;64.75
7834;BME280;3962;42.696;23.354;2023-11-19T18:04:28;95179.72;;;5.36;65.05
7834;BME280;3962;42.696;23.354;2023-11-19T18:06:56;95180.78;;;5.45;65.18
7834;BME280;3962;42.696;23.354;2023-11-19T18:09:24;95189.31;;;5.48;65.14
7834;BME280;3962;42.696;23.354;2023-11-19T18:11:53;95180.44;;;5.49;64.34
7834;BME280;3962;42.696;23.354;2023-11-19T18:14:19;95190.88;;;5.51;64.30
7834;BME280;3962;42.696;23.354;2023-11-19T18:16:48;95192.31;;;5.55;64.23
7834;BME280;3962;42.696;23.354;2023-11-19T18:19:15;95195.53;;;5.47;64.60
7834;BME280;3962;42.696;23.354;2023-11-19T18:21:45;95193.50;;;5.51;64.63
7834;BME280;3962;42.696;23.354;2023-11-19T18:24:12;95204.66;;;5.54;64.42
7834;BME280;3962;42.696;23.354;2023-11-19T18:26:41;95203.09;;;5.52;64.42
7834;BME280;3962;42.696;23.354;2023-11-19T18:29:08;95200.97;;;5.57;64.60
7834;BME280;3962;42.696;23.354;2023-11-19T18:31:36;95197.94;;;5.50;64.81
7834;BME280;3962;42.696;23.354;2023-11-19T18:34:03;95200.81;;;5.47;65.10
7834;BME280;3962;42.696;23.354;2023-11-19T18:36:33;95202.13;;;5.42;65.32
7834;BME280;3962;42.696;23.354;2023-11-19T18:39:02;95196.75;;;5.43;65.26
7834;BME280;3962;42.696;23.354;2023-11-19T18:41:29;95210.66;;;5.45;65.56
7834;BME280;3962;42.696;23.354;2023-11-19T18:43:56;95217.00;;;5.54;66.58
7834;BME280;3962;42.696;23.354;2023-11-19T18:46:23;95213.28;;;5.56;67.07
7834;BME280;3962;42.696;23.354;2023-11-19T18:48:49;95205.50;;;5.44;67.34
7834;BME280;3962;42.696;23.354;2023-11-19T18:51:17;95211.72;;;5.43;67.69
7834;BME280;3962;42.696;23.354;2023-11-19T18:53:44;95211.03;;;5.41;67.60
7834;BME280;3962;42.696;23.354;2023-11-19T18:56:13;95205.25;;;5.36;68.70
7834;BME280;3962;42.696;23.354;2023-11-19T18:58:40;95202.25;;;5.40;67.61
7834;BME280;3962;42.696;23.354;2023-11-19T19:01:07;95201.53;;;5.49;68.59
7834;BME280;3962;42.696;23.354;2023-11-19T19:03:34;95207.19;;;5.56;67.65
7834;BME280;3962;42.696;23.354;2023-11-19T19:06:02;95211.63;;;5.55;68.49
7834;BME280;3962;42.696;23.354;2023-11-19T19:08:29;95217.97;;;5.53;69.03
7834;BME280;3962;42.696;23.354;2023-11-19T19:10:57;95224.94;;;5.54;68.05
7834;BME280;3962;42.696;23.354;2023-11-19T19:13:25;95218.47;;;5.58;68.46
7834;BME280;3962;42.696;23.354;2023-11-19T19:15:52;95223.03;;;5.56;68.22
7834;BME280;3962;42.696;23.354;2023-11-19T19:18:19;95213.06;;;5.48;68.09
7834;BME280;3962;42.696;23.354;2023-11-19T19:20:46;95207.78;;;5.48;69.06
7834;BME280;3962;42.696;23.354;2023-11-19T19:23:13;95193.72;;;5.37;69.47
7834;BME280;3962;42.696;23.354;2023-11-19T19:25:39;95196.00;;;5.41;68.61
7834;BME280;3962;42.696;23.354;2023-11-19T19:28:06;95192.41;;;5.42;68.03
7834;BME280;3962;42.696;23.354;2023-11-19T19:30:36;95194.69;;;5.36;67.43
7834;BME280;3962;42.696;23.354;2023-11-19T19:33:03;95193.72;;;5.37;66.19
7834;BME280;3962;42.696;23.354;2023-11-19T19:35:30;95193.28;;;5.32;66.90
7834;BME280;3962;42.696;23.354;2023-11-19T19:37:56;95194.84;;;5.45;66.95
7834;BME280;3962;42.696;23.354;2023-11-19T19:40:24;95199.16;;;5.35;66.52
7834;BME280;3962;42.696;23.354;2023-11-19T19:42:52;95192.44;;;5.53;67.09
7834;BME280;3962;42.696;23.354;2023-11-19T19:45:19;95187.75;;;5.57;66.49
7834;BME280;3962;42.696;23.354;2023-11-19T19:47:47;95183.44;;;5.67;65.84
7834;BME280;3962;42.696;23.354;2023-11-19T19:50:14;95182.00;;;5.74;66.06
7834;BME280;3962;42.696;23.354;2023-11-19T19:52:41;95186.31;;;5.64;66.16
7834;BME280;3962;42.696;23.354;2023-11-19T19:55:14;95189.69;;;5.66;65.62
7834;BME280;3962;42.696;23.354;2023-11-19T19:57:46;95185.81;;;5.70;66.16
7834;BME280;3962;42.696;23.354;2023-11-19T20:00:14;95184.16;;;5.69;66.65
7834;BME280;3962;42.696;23.354;2023-11-19T20:02:41;95189.81;;;5.75;65.87
7834;BME280;3962;42.696;23.354;2023-11-19T20:05:09;95177.31;;;5.66;65.29
7834;BME280;3962;42.696;23.354;2023-11-19T20:07:38;95172.75;;;5.57;66.22
7834;BME280;3962;42.696;23.354;2023-11-19T20:10:08;95173.84;;;5.55;65.43
7834;BME280;3962;42.696;23.354;2023-11-19T20:12:37;95159.56;;;5.46;66.32
7834;BME280;3962;42.696;23.354;2023-11-19T20:15:05;95168.56;;;5.55;65.56
7834;BME280;3962;42.696;23.354;2023-11-19T20:17:33;95160.41;;;5.58;66.30
7834;BME280;3962;42.696;23.354;2023-11-19T20:20:00;95152.00;;;5.64;66.86
7834;BME280;3962;42.696;23.354;2023-11-19T20:22:29;95156.19;;;5.66;65.44
7834;BME280;3962;42.696;23.354;2023-11-19T20:24:56;95151.88;;;5.65;66.21
7834;BME280;3962;42.696;23.354;2023-11-19T20:27:23;95153.69;;;5.65;65.68
7834;BME280;3962;42.696;23.354;2023-11-19T20:29:50;95151.66;;;5.68;65.17
7834;BME280;3962;42.696;23.354;2023-11-19T20:32:16;95136.03;;;5.76;65.22
7834;BME280;3962;42.696;23.354;2023-11-19T20:34:43;95160.88;;;5.85;64.82
7834;BME280;3962;42.696;23.354;2023-11-19T20:37:10;95158.13;;;5.86;63.82
7834;BME280;3962;42.696;23.354;2023-11-19T20:39:38;95158.25;;;5.85;63.54